sensor_id;sensor_type;location;lat;lon;timestamp;P1;durP1;ratioP1;P2;durP2;ratioP2
79533;SDS011;68982;52.160;6.736;2023-04-12T00:01:48;7.63;;;2.58;;
79533;SDS011;68982;52.160;6.736;2023-04-12T00:04:13;7.10;;;2.53;;
79533;SDS011;68982;52.160;6.736;2023-04-12T00:06:42;8.35;;;2.65;;
79533;SDS011;68982;52.160;6.736;2023-04-12T00:09:13;7.15;;;2.42;;
79533;SDS011;68982;52.160;6.736;2023-04-12T00:11:40;11.05;;;2.35;;
79533;SDS011;68982;52.160;6.736;2023-04-12T00:14:05;7.68;;;2.30;;
79533;SDS011;68982;52.160;6.736;2023-04-12T00:16:30;9.48;;;2.83;;
79533;SDS011;68982;52.160;6.736;2023-04-12T00:18:56;7.32;;;3.03;;
79533;SDS011;68982;52.160;6.736;2023-04-12T00:21:21;6.30;;;2.45;;
79533;SDS011;68982;52.160;6.736;2023-04-12T00:23:47;7.97;;;2.60;;
79533;SDS011;68982;52.160;6.736;2023-04-12T00:26:13;4.93;;;2.40;;
79533;SDS011;68982;52.160;6.736;2023-04-12T00:28:40;7.00;;;2.55;;
79533;SDS011;68982;52.160;6.736;2023-04-12T00:31:06;11.48;;;2.35;;
79533;SDS011;68982;52.160;6.736;2023-04-12T00:33:35;6.78;;;2.65;;
79533;SDS011;68982;52.160;6.736;2023-04-12T00:36:01;5.18;;;2.72;;
79533;SDS011;68982;52.160;6.736;2023-04-12T00:38:26;7.80;;;2.35;;
79533;SDS011;68982;52.160;6.736;2023-04-12T00:40:52;6.35;;;2.17;;
79533;SDS011;68982;52.160;6.736;2023-04-12T00:43:17;7.25;;;2.20;;
79533;SDS011;68982;52.160;6.736;2023-04-12T00:45:43;5.10;;;2.40;;
79533;SDS011;68982;52.160;6.736;2023-04-12T00:48:12;6.47;;;2.20;;
79533;SDS011;68982;52.160;6.736;2023-04-12T00:50:40;7.28;;;1.83;;
79533;SDS011;68982;52.160;6.736;2023-04-12T00:53:14;7.90;;;2.45;;
79533;SDS011;68982;52.160;6.736;2023-04-12T00:55:45;8.00;;;2.60;;
79533;SDS011;68982;52.160;6.736;2023-04-12T00:58:10;6.57;;;2.20;;
79533;SDS011;68982;52.160;6.736;2023-04-12T01:00:37;5.60;;;2.20;;
79533;SDS011;68982;52.160;6.736;2023-04-12T01:03:03;5.00;;;1.92;;
79533;SDS011;68982;52.160;6.736;2023-04-12T01:05:29;6.38;;;1.80;;
79533;SDS011;68982;52.160;6.736;2023-04-12T01:11:12;4.20;;;1.80;;
79533;SDS011;68982;52.160;6.736;2023-04-12T01:13:47;7.10;;;1.90;;
79533;SDS011;68982;52.160;6.736;2023-04-12T01:16:30;7.40;;;1.60;;
79533;SDS011;68982;52.160;6.736;2023-04-12T01:19:05;5.20;;;1.80;;
79533;SDS011;68982;52.160;6.736;2023-04-12T01:24:36;4.03;;;2.30;;
79533;SDS011;68982;52.160;6.736;2023-04-12T01:27:15;6.85;;;1.73;;
79533;SDS011;68982;52.160;6.736;2023-04-12T01:30:02;4.55;;;1.85;;
79533;SDS011;68982;52.160;6.736;2023-04-12T01:32:35;5.88;;;1.70;;
79533;SDS011;68982;52.160;6.736;2023-04-12T01:35:03;4.00;;;1.77;;
79533;SDS011;68982;52.160;6.736;2023-04-12T01:37:31;4.07;;;2.03;;
79533;SDS011;68982;52.160;6.736;2023-04-12T01:39:57;7.55;;;1.90;;
79533;SDS011;68982;52.160;6.736;2023-04-12T01:42:23;4.68;;;1.85;;
79533;SDS011;68982;52.160;6.736;2023-04-12T01:44:49;4.78;;;2.00;;
79533;SDS011;68982;52.160;6.736;2023-04-12T01:47:14;4.35;;;1.88;;
79533;SDS011;68982;52.160;6.736;2023-04-12T01:49:54;4.38;;;2.03;;
79533;SDS011;68982;52.160;6.736;2023-04-12T01:52:28;6.50;;;2.35;;
79533;SDS011;68982;52.160;6.736;2023-04-12T01:54:56;5.47;;;1.70;;
79533;SDS011;68982;52.160;6.736;2023-04-12T01:57:24;3.72;;;1.92;;
79533;SDS011;68982;52.160;6.736;2023-04-12T01:59:50;4.32;;;1.77;;
79533;SDS011;68982;52.160;6.736;2023-04-12T02:02:20;10.30;;;2.20;;
79533;SDS011;68982;52.160;6.736;2023-04-12T02:04:45;7.32;;;2.20;;
79533;SDS011;68982;52.160;6.736;2023-04-12T02:07:11;4.57;;;1.85;;
79533;SDS011;68982;52.160;6.736;2023-04-12T02:09:38;5.95;;;2.58;;
79533;SDS011;68982;52.160;6.736;2023-04-12T02:12:04;5.13;;;1.88;;
79533;SDS011;68982;52.160;6.736;2023-04-12T02:14:30;4.97;;;1.73;;
79533;SDS011;68982;52.160;6.736;2023-04-12T02:16:56;5.80;;;2.07;;
79533;SDS011;68982;52.160;6.736;2023-04-12T02:19:22;5.78;;;2.22;;
79533;SDS011;68982;52.160;6.736;2023-04-12T02:21:48;6.50;;;2.45;;
79533;SDS011;68982;52.160;6.736;2023-04-12T02:24:14;9.52;;;2.42;;
79533;SDS011;68982;52.160;6.736;2023-04-12T02:26:40;6.72;;;2.72;;
79533;SDS011;68982;52.160;6.736;2023-04-12T02:29:05;8.60;;;2.47;;
79533;SDS011;68982;52.160;6.736;2023-04-12T02:31:33;7.05;;;2.35;;
79533;SDS011;68982;52.160;6.736;2023-04-12T02:33:59;5.43;;;1.80;;
79533;SDS011;68982;52.160;6.736;2023-04-12T02:36:25;6.28;;;2.33;;
79533;SDS011;68982;52.160;6.736;2023-04-12T02:38:50;7.93;;;2.30;;
79533;SDS011;68982;52.160;6.736;2023-04-12T02:41:16;6.28;;;2.38;;
79533;SDS011;68982;52.160;6.736;2023-04-12T02:43:42;6.45;;;2.15;;
79533;SDS011;68982;52.160;6.736;2023-04-12T02:46:08;7.43;;;2.08;;
79533;SDS011;68982;52.160;6.736;2023-04-12T02:48:33;9.47;;;2.60;;
79533;SDS011;68982;52.160;6.736;2023-04-12T02:50:58;6.27;;;2.40;;
79533;SDS011;68982;52.160;6.736;2023-04-12T02:53:23;6.50;;;2.50;;
79533;SDS011;68982;52.160;6.736;2023-04-12T02:55:49;6.25;;;2.25;;
79533;SDS011;68982;52.160;6.736;2023-04-12T02:58:14;3.70;;;1.63;;
79533;SDS011;68982;52.160;6.736;2023-04-12T03:00:40;5.55;;;2.15;;
79533;SDS011;68982;52.160;6.736;2023-04-12T03:03:07;6.80;;;1.80;;
79533;SDS011;68982;52.160;6.736;2023-04-12T03:05:33;5.57;;;1.70;;
79533;SDS011;68982;52.160;6.736;2023-04-12T03:07:58;9.07;;;2.00;;
79533;SDS011;68982;52.160;6.736;2023-04-12T03:10:23;8.23;;;4.40;;
79533;SDS011;68982;52.160;6.736;2023-04-12T03:12:49;8.85;;;2.00;;
79533;SDS011;68982;52.160;6.736;2023-04-12T03:15:14;7.05;;;2.10;;
79533;SDS011;68982;52.160;6.736;2023-04-12T03:17:40;11.02;;;2.45;;
79533;SDS011;68982;52.160;6.736;2023-04-12T03:20:07;9.60;;;2.20;;
79533;SDS011;68982;52.160;6.736;2023-04-12T03:22:34;6.25;;;2.75;;
79533;SDS011;68982;52.160;6.736;2023-04-12T03:25:00;3.50;;;1.83;;
79533;SDS011;68982;52.160;6.736;2023-04-12T03:27:26;3.65;;;1.98;;
79533;SDS011;68982;52.160;6.736;2023-04-12T03:29:52;4.25;;;2.03;;
79533;SDS011;68982;52.160;6.736;2023-04-12T03:32:17;5.43;;;2.37;;
79533;SDS011;68982;52.160;6.736;2023-04-12T03:34:42;6.55;;;2.15;;
79533;SDS011;68982;52.160;6.736;2023-04-12T03:37:09;3.30;;;1.83;;
79533;SDS011;68982;52.160;6.736;2023-04-12T03:39:35;4.53;;;1.75;;
79533;SDS011;68982;52.160;6.736;2023-04-12T03:42:00;4.82;;;1.88;;
79533;SDS011;68982;52.160;6.736;2023-04-12T03:44:25;5.93;;;2.10;;
79533;SDS011;68982;52.160;6.736;2023-04-12T03:46:50;6.93;;;2.07;;
79533;SDS011;68982;52.160;6.736;2023-04-12T03:49:16;4.57;;;1.73;;
79533;SDS011;68982;52.160;6.736;2023-04-12T03:51:42;3.42;;;1.98;;
79533;SDS011;68982;52.160;6.736;2023-04-12T03:54:10;6.22;;;2.42;;
79533;SDS011;68982;52.160;6.736;2023-04-12T03:56:37;3.35;;;1.65;;
79533;SDS011;68982;52.160;6.736;2023-04-12T03:59:03;3.88;;;2.17;;
79533;SDS011;68982;52.160;6.736;2023-04-12T04:01:29;4.32;;;1.75;;
79533;SDS011;68982;52.160;6.736;2023-04-12T04:03:55;3.17;;;1.83;;
79533;SDS011;68982;52.160;6.736;2023-04-12T04:06:21;5.63;;;1.67;;
79533;SDS011;68982;52.160;6.736;2023-04-12T04:08:47;3.55;;;2.00;;
79533;SDS011;68982;52.160;6.736;2023-04-12T04:11:12;4.75;;;1.63;;
79533;SDS011;68982;52.160;6.736;2023-04-12T04:13:38;6.18;;;1.88;;
79533;SDS011;68982;52.160;6.736;2023-04-12T04:16:06;2.88;;;1.65;;
79533;SDS011;68982;52.160;6.736;2023-04-12T04:18:34;4.03;;;1.80;;
79533;SDS011;68982;52.160;6.736;2023-04-12T04:21:00;6.38;;;2.00;;
79533;SDS011;68982;52.160;6.736;2023-04-12T04:23:25;2.97;;;1.85;;
79533;SDS011;68982;52.160;6.736;2023-04-12T04:25:53;6.18;;;2.35;;
79533;SDS011;68982;52.160;6.736;2023-04-12T04:28:18;4.40;;;1.70;;
79533;SDS011;68982;52.160;6.736;2023-04-12T04:30:44;4.40;;;1.65;;
79533;SDS011;68982;52.160;6.736;2023-04-12T04:33:10;4.57;;;1.80;;
79533;SDS011;68982;52.160;6.736;2023-04-12T04:35:40;6.13;;;2.10;;
79533;SDS011;68982;52.160;6.736;2023-04-12T04:38:07;4.22;;;2.03;;
79533;SDS011;68982;52.160;6.736;2023-04-12T04:40:35;5.60;;;1.70;;
79533;SDS011;68982;52.160;6.736;2023-04-12T04:43:01;2.67;;;1.45;;
79533;SDS011;68982;52.160;6.736;2023-04-12T04:45:26;3.40;;;1.88;;
79533;SDS011;68982;52.160;6.736;2023-04-12T04:47:52;4.50;;;1.40;;
79533;SDS011;68982;52.160;6.736;2023-04-12T04:50:19;4.95;;;1.83;;
79533;SDS011;68982;52.160;6.736;2023-04-12T04:52:45;4.95;;;2.00;;
79533;SDS011;68982;52.160;6.736;2023-04-12T04:55:12;4.53;;;2.33;;
79533;SDS011;68982;52.160;6.736;2023-04-12T04:57:38;4.10;;;1.80;;
79533;SDS011;68982;52.160;6.736;2023-04-12T05:00:07;4.38;;;2.03;;
79533;SDS011;68982;52.160;6.736;2023-04-12T05:02:37;3.55;;;1.90;;
79533;SDS011;68982;52.160;6.736;2023-04-12T05:07:32;5.00;;;1.75;;
79533;SDS011;68982;52.160;6.736;2023-04-12T05:09:58;7.23;;;3.07;;
79533;SDS011;68982;52.160;6.736;2023-04-12T05:12:23;6.63;;;2.27;;
79533;SDS011;68982;52.160;6.736;2023-04-12T05:14:48;5.10;;;1.57;;
79533;SDS011;68982;52.160;6.736;2023-04-12T05:17:14;6.35;;;2.55;;
79533;SDS011;68982;52.160;6.736;2023-04-12T05:19:39;3.70;;;2.05;;
79533;SDS011;68982;52.160;6.736;2023-04-12T05:22:05;3.72;;;2.00;;
79533;SDS011;68982;52.160;6.736;2023-04-12T05:24:31;2.72;;;2.13;;
79533;SDS011;68982;52.160;6.736;2023-04-12T05:26:56;5.03;;;2.78;;
79533;SDS011;68982;52.160;6.736;2023-04-12T05:29:21;3.93;;;2.27;;
79533;SDS011;68982;52.160;6.736;2023-04-12T05:31:47;2.60;;;1.90;;
79533;SDS011;68982;52.160;6.736;2023-04-12T05:34:12;4.27;;;2.13;;
79533;SDS011;68982;52.160;6.736;2023-04-12T05:36:37;7.83;;;1.97;;
79533;SDS011;68982;52.160;6.736;2023-04-12T05:39:03;6.57;;;2.85;;
79533;SDS011;68982;52.160;6.736;2023-04-12T05:41:28;3.70;;;2.22;;
79533;SDS011;68982;52.160;6.736;2023-04-12T05:43:53;4.60;;;2.33;;
79533;SDS011;68982;52.160;6.736;2023-04-12T05:46:18;3.53;;;2.10;;
79533;SDS011;68982;52.160;6.736;2023-04-12T05:48:44;3.38;;;2.17;;
79533;SDS011;68982;52.160;6.736;2023-04-12T05:51:09;5.37;;;2.43;;
79533;SDS011;68982;52.160;6.736;2023-04-12T05:53:35;4.82;;;2.35;;
79533;SDS011;68982;52.160;6.736;2023-04-12T05:56:00;5.33;;;2.17;;
79533;SDS011;68982;52.160;6.736;2023-04-12T05:58:25;5.18;;;2.17;;
79533;SDS011;68982;52.160;6.736;2023-04-12T06:00:51;5.83;;;2.10;;
79533;SDS011;68982;52.160;6.736;2023-04-12T06:03:18;6.07;;;2.63;;
79533;SDS011;68982;52.160;6.736;2023-04-12T06:05:43;6.45;;;2.42;;
79533;SDS011;68982;52.160;6.736;2023-04-12T06:08:09;3.55;;;2.67;;
79533;SDS011;68982;52.160;6.736;2023-04-12T06:10:36;6.03;;;2.45;;
79533;SDS011;68982;52.160;6.736;2023-04-12T06:13:02;6.20;;;2.30;;
79533;SDS011;68982;52.160;6.736;2023-04-12T06:15:27;6.28;;;2.90;;
79533;SDS011;68982;52.160;6.736;2023-04-12T06:17:55;3.53;;;2.47;;
79533;SDS011;68982;52.160;6.736;2023-04-12T06:20:22;6.13;;;2.25;;
79533;SDS011;68982;52.160;6.736;2023-04-12T06:22:47;4.07;;;1.93;;
79533;SDS011;68982;52.160;6.736;2023-04-12T06:25:13;4.78;;;2.10;;
79533;SDS011;68982;52.160;6.736;2023-04-12T06:27:40;4.40;;;2.45;;
79533;SDS011;68982;52.160;6.736;2023-04-12T06:30:06;4.53;;;2.22;;
79533;SDS011;68982;52.160;6.736;2023-04-12T06:32:32;3.42;;;2.40;;
79533;SDS011;68982;52.160;6.736;2023-04-12T06:34:57;2.85;;;2.05;;
79533;SDS011;68982;52.160;6.736;2023-04-12T06:37:23;4.27;;;1.87;;
79533;SDS011;68982;52.160;6.736;2023-04-12T06:39:48;4.97;;;2.67;;
79533;SDS011;68982;52.160;6.736;2023-04-12T06:42:13;3.90;;;2.20;;
79533;SDS011;68982;52.160;6.736;2023-04-12T06:44:39;6.03;;;2.63;;
79533;SDS011;68982;52.160;6.736;2023-04-12T06:47:05;5.70;;;2.35;;
79533;SDS011;68982;52.160;6.736;2023-04-12T06:49:30;6.95;;;3.25;;
79533;SDS011;68982;52.160;6.736;2023-04-12T06:51:56;7.20;;;3.08;;
79533;SDS011;68982;52.160;6.736;2023-04-12T06:54:21;4.97;;;2.47;;
79533;SDS011;68982;52.160;6.736;2023-04-12T06:56:48;5.80;;;2.58;;
79533;SDS011;68982;52.160;6.736;2023-04-12T06:59:13;5.25;;;2.60;;
79533;SDS011;68982;52.160;6.736;2023-04-12T07:01:38;5.63;;;2.78;;
79533;SDS011;68982;52.160;6.736;2023-04-12T07:04:04;4.40;;;2.50;;
79533;SDS011;68982;52.160;6.736;2023-04-12T07:06:29;4.40;;;2.08;;
79533;SDS011;68982;52.160;6.736;2023-04-12T07:08:55;6.00;;;3.05;;
79533;SDS011;68982;52.160;6.736;2023-04-12T07:11:20;5.57;;;2.70;;
79533;SDS011;68982;52.160;6.736;2023-04-12T07:13:49;6.57;;;3.08;;
79533;SDS011;68982;52.160;6.736;2023-04-12T07:16:15;6.35;;;2.75;;
79533;SDS011;68982;52.160;6.736;2023-04-12T07:18:41;5.80;;;3.15;;
79533;SDS011;68982;52.160;6.736;2023-04-12T07:21:06;3.42;;;3.08;;
79533;SDS011;68982;52.160;6.736;2023-04-12T07:23:32;5.10;;;2.58;;
79533;SDS011;68982;52.160;6.736;2023-04-12T07:25:58;4.85;;;2.70;;
79533;SDS011;68982;52.160;6.736;2023-04-12T07:28:24;5.50;;;2.95;;
79533;SDS011;68982;52.160;6.736;2023-04-12T07:30:50;4.63;;;3.17;;
79533;SDS011;68982;52.160;6.736;2023-04-12T07:33:15;5.40;;;3.67;;
79533;SDS011;68982;52.160;6.736;2023-04-12T07:35:40;4.50;;;2.95;;
79533;SDS011;68982;52.160;6.736;2023-04-12T07:38:06;6.32;;;3.42;;
79533;SDS011;68982;52.160;6.736;2023-04-12T07:40:31;5.13;;;3.92;;
79533;SDS011;68982;52.160;6.736;2023-04-12T07:42:57;5.35;;;3.97;;
79533;SDS011;68982;52.160;6.736;2023-04-12T07:45:22;6.15;;;3.45;;
79533;SDS011;68982;52.160;6.736;2023-04-12T07:47:48;5.15;;;3.85;;
79533;SDS011;68982;52.160;6.736;2023-04-12T07:50:14;4.80;;;3.17;;
79533;SDS011;68982;52.160;6.736;2023-04-12T07:52:40;5.90;;;4.28;;
79533;SDS011;68982;52.160;6.736;2023-04-12T07:55:05;5.38;;;3.75;;
79533;SDS011;68982;52.160;6.736;2023-04-12T07:57:30;5.75;;;3.80;;
79533;SDS011;68982;52.160;6.736;2023-04-12T07:59:56;7.70;;;3.70;;
79533;SDS011;68982;52.160;6.736;2023-04-12T08:02:21;8.93;;;4.63;;
79533;SDS011;68982;52.160;6.736;2023-04-12T08:04:53;6.35;;;4.30;;
79533;SDS011;68982;52.160;6.736;2023-04-12T08:07:19;9.02;;;4.43;;
79533;SDS011;68982;52.160;6.736;2023-04-12T08:09:46;8.88;;;5.30;;
79533;SDS011;68982;52.160;6.736;2023-04-12T08:12:11;7.60;;;4.22;;
79533;SDS011;68982;52.160;6.736;2023-04-12T08:14:37;7.93;;;4.35;;
79533;SDS011;68982;52.160;6.736;2023-04-12T08:17:02;7.90;;;4.80;;
79533;SDS011;68982;52.160;6.736;2023-04-12T08:19:28;5.03;;;4.53;;
79533;SDS011;68982;52.160;6.736;2023-04-12T08:21:53;5.75;;;4.60;;
79533;SDS011;68982;52.160;6.736;2023-04-12T08:24:19;7.32;;;4.22;;
79533;SDS011;68982;52.160;6.736;2023-04-12T08:26:44;8.15;;;5.28;;
79533;SDS011;68982;52.160;6.736;2023-04-12T08:29:10;6.50;;;5.28;;
79533;SDS011;68982;52.160;6.736;2023-04-12T08:31:36;8.07;;;4.90;;
79533;SDS011;68982;52.160;6.736;2023-04-12T08:34:01;7.25;;;5.18;;
79533;SDS011;68982;52.160;6.736;2023-04-12T08:36:27;8.17;;;6.23;;
79533;SDS011;68982;52.160;6.736;2023-04-12T08:38:52;9.68;;;6.22;;
79533;SDS011;68982;52.160;6.736;2023-04-12T08:41:21;8.27;;;6.13;;
79533;SDS011;68982;52.160;6.736;2023-04-12T08:43:47;8.75;;;6.78;;
79533;SDS011;68982;52.160;6.736;2023-04-12T08:46:15;8.45;;;6.55;;
79533;SDS011;68982;52.160;6.736;2023-04-12T08:48:42;10.07;;;6.78;;
79533;SDS011;68982;52.160;6.736;2023-04-12T08:51:11;8.60;;;6.68;;
79533;SDS011;68982;52.160;6.736;2023-04-12T08:53:38;10.30;;;7.38;;
79533;SDS011;68982;52.160;6.736;2023-04-12T08:56:05;11.32;;;6.10;;
79533;SDS011;68982;52.160;6.736;2023-04-12T08:58:33;9.57;;;6.93;;
79533;SDS011;68982;52.160;6.736;2023-04-12T09:00:59;10.27;;;7.50;;
79533;SDS011;68982;52.160;6.736;2023-04-12T09:03:25;9.15;;;6.38;;
79533;SDS011;68982;52.160;6.736;2023-04-12T09:05:51;8.85;;;7.07;;
79533;SDS011;68982;52.160;6.736;2023-04-12T09:08:17;9.68;;;6.78;;
79533;SDS011;68982;52.160;6.736;2023-04-12T09:10:42;10.90;;;7.18;;
79533;SDS011;68982;52.160;6.736;2023-04-12T09:13:07;9.63;;;7.33;;
79533;SDS011;68982;52.160;6.736;2023-04-12T09:15:33;10.03;;;7.60;;
79533;SDS011;68982;52.160;6.736;2023-04-12T09:18:08;11.80;;;8.27;;
79533;SDS011;68982;52.160;6.736;2023-04-12T09:20:35;10.02;;;7.07;;
79533;SDS011;68982;52.160;6.736;2023-04-12T09:23:22;10.43;;;7.82;;
79533;SDS011;68982;52.160;6.736;2023-04-12T09:25:50;9.32;;;6.90;;
79533;SDS011;68982;52.160;6.736;2023-04-12T09:28:26;8.82;;;6.85;;
79533;SDS011;68982;52.160;6.736;2023-04-12T09:30:54;9.73;;;7.20;;
79533;SDS011;68982;52.160;6.736;2023-04-12T09:33:32;10.38;;;7.63;;
79533;SDS011;68982;52.160;6.736;2023-04-12T09:36:00;11.63;;;7.78;;
79533;SDS011;68982;52.160;6.736;2023-04-12T09:38:26;9.55;;;7.70;;
79533;SDS011;68982;52.160;6.736;2023-04-12T09:40:52;9.18;;;5.85;;
79533;SDS011;68982;52.160;6.736;2023-04-12T09:43:18;9.35;;;5.15;;
79533;SDS011;68982;52.160;6.736;2023-04-12T09:45:44;7.35;;;5.25;;
79533;SDS011;68982;52.160;6.736;2023-04-12T09:48:17;7.80;;;4.10;;
79533;SDS011;68982;52.160;6.736;2023-04-12T09:50:44;9.25;;;5.55;;
79533;SDS011;68982;52.160;6.736;2023-04-12T09:53:16;9.52;;;5.63;;
79533;SDS011;68982;52.160;6.736;2023-04-12T09:55:44;8.90;;;5.47;;
79533;SDS011;68982;52.160;6.736;2023-04-12T09:58:11;10.20;;;3.45;;
79533;SDS011;68982;52.160;6.736;2023-04-12T10:00:41;6.45;;;3.40;;
79533;SDS011;68982;52.160;6.736;2023-04-12T10:03:08;6.47;;;3.85;;
79533;SDS011;68982;52.160;6.736;2023-04-12T10:05:34;7.20;;;3.20;;
79533;SDS011;68982;52.160;6.736;2023-04-12T10:08:00;9.23;;;3.65;;
79533;SDS011;68982;52.160;6.736;2023-04-12T10:10:26;5.63;;;3.17;;
79533;SDS011;68982;52.160;6.736;2023-04-12T10:12:52;5.78;;;3.30;;
79533;SDS011;68982;52.160;6.736;2023-04-12T10:15:18;5.93;;;3.03;;
79533;SDS011;68982;52.160;6.736;2023-04-12T10:17:47;6.20;;;3.25;;
79533;SDS011;68982;52.160;6.736;2023-04-12T10:20:14;5.20;;;2.85;;
79533;SDS011;68982;52.160;6.736;2023-04-12T10:22:45;6.93;;;2.42;;
79533;SDS011;68982;52.160;6.736;2023-04-12T10:25:15;24.13;;;13.10;;
79533;SDS011;68982;52.160;6.736;2023-04-12T10:27:43;23.38;;;13.43;;
79533;SDS011;68982;52.160;6.736;2023-04-12T10:30:28;19.52;;;8.68;;
79533;SDS011;68982;52.160;6.736;2023-04-12T10:35:26;4.88;;;2.38;;
79533;SDS011;68982;52.160;6.736;2023-04-12T10:38:02;7.22;;;2.67;;
79533;SDS011;68982;52.160;6.736;2023-04-12T10:40:29;5.20;;;2.17;;
79533;SDS011;68982;52.160;6.736;2023-04-12T10:48:27;5.57;;;2.00;;
79533;SDS011;68982;52.160;6.736;2023-04-12T10:53:39;6.43;;;2.08;;
79533;SDS011;68982;52.160;6.736;2023-04-12T10:59:13;5.50;;;2.65;;
79533;SDS011;68982;52.160;6.736;2023-04-12T11:01:41;6.82;;;2.45;;
79533;SDS011;68982;52.160;6.736;2023-04-12T11:04:26;6.05;;;1.98;;
79533;SDS011;68982;52.160;6.736;2023-04-12T11:09:20;8.07;;;3.53;;
79533;SDS011;68982;52.160;6.736;2023-04-12T11:11:49;8.65;;;2.13;;
79533;SDS011;68982;52.160;6.736;2023-04-12T11:14:15;7.22;;;2.67;;
79533;SDS011;68982;52.160;6.736;2023-04-12T11:19:43;4.72;;;1.83;;
79533;SDS011;68982;52.160;6.736;2023-04-12T11:22:13;5.93;;;1.70;;
79533;SDS011;68982;52.160;6.736;2023-04-12T11:24:41;7.50;;;1.90;;
79533;SDS011;68982;52.160;6.736;2023-04-12T11:27:08;5.82;;;1.85;;
79533;SDS011;68982;52.160;6.736;2023-04-12T11:29:34;12.73;;;2.28;;
79533;SDS011;68982;52.160;6.736;2023-04-12T11:32:08;7.57;;;2.35;;
79533;SDS011;68982;52.160;6.736;2023-04-12T11:34:37;7.40;;;2.00;;
79533;SDS011;68982;52.160;6.736;2023-04-12T11:37:02;5.72;;;2.38;;
79533;SDS011;68982;52.160;6.736;2023-04-12T11:39:32;4.72;;;1.85;;
79533;SDS011;68982;52.160;6.736;2023-04-12T11:41:58;8.65;;;2.05;;
79533;SDS011;68982;52.160;6.736;2023-04-12T11:44:23;7.45;;;2.55;;
79533;SDS011;68982;52.160;6.736;2023-04-12T11:46:49;10.70;;;3.53;;
79533;SDS011;68982;52.160;6.736;2023-04-12T11:49:15;8.75;;;2.80;;
79533;SDS011;68982;52.160;6.736;2023-04-12T11:51:43;12.80;;;3.47;;
79533;SDS011;68982;52.160;6.736;2023-04-12T11:54:11;10.38;;;2.53;;
79533;SDS011;68982;52.160;6.736;2023-04-12T11:56:38;12.18;;;2.88;;
79533;SDS011;68982;52.160;6.736;2023-04-12T11:59:04;7.60;;;2.10;;
79533;SDS011;68982;52.160;6.736;2023-04-12T12:01:30;9.63;;;2.22;;
79533;SDS011;68982;52.160;6.736;2023-04-12T12:03:58;10.48;;;2.78;;
79533;SDS011;68982;52.160;6.736;2023-04-12T12:06:23;6.70;;;2.00;;
79533;SDS011;68982;52.160;6.736;2023-04-12T12:11:18;10.93;;;3.00;;
79533;SDS011;68982;52.160;6.736;2023-04-12T12:13:46;7.53;;;2.40;;
79533;SDS011;68982;52.160;6.736;2023-04-12T12:16:15;13.00;;;2.20;;
79533;SDS011;68982;52.160;6.736;2023-04-12T12:18:42;10.70;;;2.28;;
79533;SDS011;68982;52.160;6.736;2023-04-12T12:21:08;12.73;;;2.58;;
79533;SDS011;68982;52.160;6.736;2023-04-12T12:23:34;8.98;;;2.55;;
79533;SDS011;68982;52.160;6.736;2023-04-12T12:26:00;10.10;;;3.60;;
79533;SDS011;68982;52.160;6.736;2023-04-12T12:28:39;13.05;;;2.45;;
79533;SDS011;68982;52.160;6.736;2023-04-12T12:31:17;12.63;;;2.47;;
79533;SDS011;68982;52.160;6.736;2023-04-12T12:33:44;11.82;;;2.75;;
79533;SDS011;68982;52.160;6.736;2023-04-12T12:36:09;12.03;;;2.83;;
79533;SDS011;68982;52.160;6.736;2023-04-12T12:38:38;9.20;;;2.03;;
79533;SDS011;68982;52.160;6.736;2023-04-12T12:41:17;10.55;;;2.88;;
79533;SDS011;68982;52.160;6.736;2023-04-12T12:43:47;10.93;;;2.25;;
79533;SDS011;68982;52.160;6.736;2023-04-12T12:46:14;7.85;;;2.05;;
79533;SDS011;68982;52.160;6.736;2023-04-12T12:48:41;9.77;;;2.50;;
79533;SDS011;68982;52.160;6.736;2023-04-12T12:51:07;10.35;;;2.58;;
79533;SDS011;68982;52.160;6.736;2023-04-12T12:53:38;4.72;;;1.90;;
79533;SDS011;68982;52.160;6.736;2023-04-12T12:56:05;5.50;;;1.77;;
79533;SDS011;68982;52.160;6.736;2023-04-12T12:58:35;4.22;;;1.83;;
79533;SDS011;68982;52.160;6.736;2023-04-12T13:01:01;4.97;;;1.90;;
79533;SDS011;68982;52.160;6.736;2023-04-12T13:03:28;6.13;;;1.70;;
79533;SDS011;68982;52.160;6.736;2023-04-12T13:05:53;6.22;;;2.17;;
79533;SDS011;68982;52.160;6.736;2023-04-12T13:08:20;8.55;;;2.83;;
79533;SDS011;68982;52.160;6.736;2023-04-12T13:10:46;5.10;;;2.67;;
79533;SDS011;68982;52.160;6.736;2023-04-12T13:13:11;6.38;;;2.05;;
79533;SDS011;68982;52.160;6.736;2023-04-12T13:15:37;7.90;;;2.58;;
79533;SDS011;68982;52.160;6.736;2023-04-12T13:18:02;10.20;;;3.10;;
79533;SDS011;68982;52.160;6.736;2023-04-12T13:20:28;5.55;;;2.45;;
79533;SDS011;68982;52.160;6.736;2023-04-12T13:22:53;5.97;;;2.50;;
79533;SDS011;68982;52.160;6.736;2023-04-12T13:25:19;7.18;;;2.60;;
79533;SDS011;68982;52.160;6.736;2023-04-12T13:27:48;5.25;;;1.95;;
79533;SDS011;68982;52.160;6.736;2023-04-12T13:30:14;4.97;;;2.45;;
79533;SDS011;68982;52.160;6.736;2023-04-12T13:32:40;7.55;;;2.38;;
79533;SDS011;68982;52.160;6.736;2023-04-12T13:35:05;5.80;;;2.72;;
79533;SDS011;68982;52.160;6.736;2023-04-12T13:37:33;9.27;;;3.40;;
79533;SDS011;68982;52.160;6.736;2023-04-12T13:39:59;7.45;;;2.95;;
79533;SDS011;68982;52.160;6.736;2023-04-12T13:42:26;9.57;;;3.40;;
79533;SDS011;68982;52.160;6.736;2023-04-12T13:44:52;8.85;;;3.08;;
79533;SDS011;68982;52.160;6.736;2023-04-12T13:47:17;9.70;;;3.47;;
79533;SDS011;68982;52.160;6.736;2023-04-12T13:49:43;7.90;;;3.17;;
79533;SDS011;68982;52.160;6.736;2023-04-12T13:52:08;12.50;;;5.28;;
79533;SDS011;68982;52.160;6.736;2023-04-12T13:54:34;7.63;;;3.58;;
79533;SDS011;68982;52.160;6.736;2023-04-12T13:56:59;11.95;;;5.50;;
79533;SDS011;68982;52.160;6.736;2023-04-12T13:59:26;15.63;;;6.90;;
79533;SDS011;68982;52.160;6.736;2023-04-12T14:01:51;13.45;;;4.10;;
79533;SDS011;68982;52.160;6.736;2023-04-12T14:04:17;9.55;;;3.05;;
79533;SDS011;68982;52.160;6.736;2023-04-12T14:06:42;9.27;;;2.60;;
79533;SDS011;68982;52.160;6.736;2023-04-12T14:09:09;7.35;;;2.63;;
79533;SDS011;68982;52.160;6.736;2023-04-12T14:11:47;9.98;;;2.58;;
79533;SDS011;68982;52.160;6.736;2023-04-12T14:14:13;5.30;;;2.55;;
79533;SDS011;68982;52.160;6.736;2023-04-12T14:16:38;7.78;;;2.60;;
79533;SDS011;68982;52.160;6.736;2023-04-12T14:19:03;6.65;;;2.30;;
79533;SDS011;68982;52.160;6.736;2023-04-12T14:21:29;4.27;;;2.37;;
79533;SDS011;68982;52.160;6.736;2023-04-12T14:23:55;8.05;;;3.03;;
79533;SDS011;68982;52.160;6.736;2023-04-12T14:26:20;7.50;;;2.70;;
79533;SDS011;68982;52.160;6.736;2023-04-12T14:28:46;8.37;;;3.10;;
79533;SDS011;68982;52.160;6.736;2023-04-12T14:33:39;7.40;;;2.50;;
79533;SDS011;68982;52.160;6.736;2023-04-12T14:36:05;7.35;;;2.58;;
79533;SDS011;68982;52.160;6.736;2023-04-12T14:38:32;10.35;;;2.78;;
79533;SDS011;68982;52.160;6.736;2023-04-12T14:40:57;8.02;;;2.75;;
79533;SDS011;68982;52.160;6.736;2023-04-12T14:43:22;9.40;;;3.42;;
79533;SDS011;68982;52.160;6.736;2023-04-12T14:45:48;8.30;;;3.10;;
79533;SDS011;68982;52.160;6.736;2023-04-12T14:48:13;9.80;;;2.83;;
79533;SDS011;68982;52.160;6.736;2023-04-12T14:50:39;11.60;;;2.92;;
79533;SDS011;68982;52.160;6.736;2023-04-12T14:53:04;13.23;;;3.13;;
79533;SDS011;68982;52.160;6.736;2023-04-12T14:55:31;9.70;;;2.97;;
79533;SDS011;68982;52.160;6.736;2023-04-12T14:57:56;10.23;;;2.00;;
79533;SDS011;68982;52.160;6.736;2023-04-12T15:00:21;7.88;;;2.47;;
79533;SDS011;68982;52.160;6.736;2023-04-12T15:02:47;11.77;;;3.08;;
79533;SDS011;68982;52.160;6.736;2023-04-12T15:05:13;5.95;;;1.88;;
79533;SDS011;68982;52.160;6.736;2023-04-12T15:07:39;5.18;;;1.90;;
79533;SDS011;68982;52.160;6.736;2023-04-12T15:10:05;4.80;;;1.88;;
79533;SDS011;68982;52.160;6.736;2023-04-12T15:12:31;6.40;;;1.70;;
79533;SDS011;68982;52.160;6.736;2023-04-12T15:15:01;7.43;;;1.77;;
79533;SDS011;68982;52.160;6.736;2023-04-12T15:17:27;5.25;;;1.92;;